createdAt,value
2022-08-31T00:00:03.070Z,63.94
2022-08-31T00:01:03.057Z,64.44
2022-08-31T00:02:02.765Z,65.04
2022-08-31T00:03:02.683Z,64.44
2022-08-31T00:04:03.504Z,64.34
2022-08-31T00:05:03.372Z,64.54
2022-08-31T00:06:03.195Z,64.54
2022-08-31T00:07:02.141Z,64.84
2022-08-31T00:08:02.271Z,64.64
2022-08-31T00:09:02.230Z,65.23
2022-08-31T00:10:02.278Z,64.74
2022-08-31T00:11:02.408Z,64.94
2022-08-31T00:12:02.282Z,64.44
2022-08-31T00:13:02.876Z,64.34
2022-08-31T00:14:02.658Z,64.37
2022-08-31T00:15:02.471Z,64.87
2022-08-31T00:16:02.402Z,64.47
2022-08-31T00:17:02.327Z,65.07
2022-08-31T00:18:02.926Z,65.37
2022-08-31T00:19:02.579Z,64.97
2022-08-31T00:20:02.334Z,65.37
2022-08-31T00:21:02.432Z,65.17
2022-08-31T00:22:02.304Z,65.26
2022-08-31T00:23:02.209Z,65.37
2022-08-31T00:24:02.608Z,65.26
2022-08-31T00:25:02.253Z,66.06
2022-08-31T00:26:02.127Z,65.97
2022-08-31T00:27:02.775Z,65.97
2022-08-31T00:28:02.824Z,66.66
2022-08-31T00:29:02.920Z,66.06
2022-08-31T00:30:02.700Z,67.36
2022-08-31T00:31:02.651Z,67.16
2022-08-31T00:32:02.731Z,67.30
2022-08-31T00:33:02.462Z,67.40
2022-08-31T00:34:02.379Z,67.10
2022-08-31T00:35:02.344Z,67.40
2022-08-31T00:36:02.161Z,66.80
2022-08-31T00:37:02.848Z,67.10
2022-08-31T00:38:02.685Z,67.10
2022-08-31T00:39:02.644Z,67.19
2022-08-31T00:40:03.279Z,67.10
2022-08-31T00:41:02.793Z,67.30
2022-08-31T00:42:02.499Z,66.89
2022-08-31T00:43:02.485Z,66.39
2022-08-31T00:44:02.434Z,66.00
2022-08-31T00:45:02.299Z,66.00
2022-08-31T00:46:02.967Z,66.70
2022-08-31T00:47:02.924Z,66.70
2022-08-31T00:48:02.941Z,67.43
2022-08-31T00:49:02.903Z,70.53
2022-08-31T00:50:02.776Z,72.42
2022-08-31T00:51:02.736Z,74.22
2022-08-31T00:52:03.390Z,76.02
2022-08-31T00:53:03.395Z,75.48
2022-08-31T00:54:03.213Z,74.32
2022-08-31T00:55:03.148Z,74.52
2022-08-31T00:56:03.669Z,74.62
2022-08-31T00:57:02.617Z,74.32
2022-08-31T00:58:02.526Z,74.72
2022-08-31T00:59:02.378Z,74.22
2022-08-31T01:00:02.342Z,73.72
2022-08-31T01:01:02.974Z,74.12
2022-08-31T01:02:03.276Z,75.42
2022-08-31T01:03:03.186Z,77.92
2022-08-31T01:04:03.165Z,76.86
2022-08-31T01:05:03.642Z,76.86
2022-08-31T01:06:03.194Z,76.26
2022-08-31T01:07:02.745Z,76.45
2022-08-31T01:08:02.849Z,75.85
2022-08-31T01:09:02.827Z,75.56
2022-08-31T01:10:02.795Z,75.46
2022-08-31T01:11:02.619Z,76.26
2022-08-31T01:12:03.200Z,76.35
2022-08-31T01:13:02.857Z,75.96
2022-08-31T01:14:03.344Z,75.65
2022-08-31T01:15:03.138Z,75.85
2022-08-31T01:16:03.001Z,75.56
2022-08-31T01:17:02.531Z,75.85
2022-08-31T01:18:02.273Z,75.96
2022-08-31T01:19:02.767Z,76.19
2022-08-31T01:20:02.360Z,75.79
2022-08-31T01:21:02.430Z,77.59
2022-08-31T01:22:03.244Z,78.09
2022-08-31T01:23:03.245Z,76.79
2022-08-31T01:24:02.855Z,76.89
2022-08-31T01:25:02.622Z,76.59
2022-08-31T01:26:03.184Z,76.59
2022-08-31T01:27:03.548Z,76.29
2022-08-31T01:28:03.498Z,76.39
2022-08-31T01:29:03.262Z,76.39
2022-08-31T01:30:03.223Z,77.29
2022-08-31T01:31:03.768Z,77.49
2022-08-31T01:32:03.394Z,77.09
2022-08-31T01:33:03.107Z,76.99
2022-08-31T01:34:02.942Z,76.69
2022-08-31T01:35:03.245Z,76.69
2022-08-31T01:36:03.126Z,77.19
2022-08-31T01:37:03.673Z,77.29
2022-08-31T01:38:03.559Z,78.59
2022-08-31T01:39:03.834Z,78.49
2022-08-31T01:40:03.571Z,80.69
2022-08-31T01:41:03.239Z,80.99
2022-08-31T01:42:02.935Z,81.83
2022-08-31T01:43:03.045Z,82.13
2022-08-31T01:44:02.723Z,80.13
2022-08-31T01:45:02.648Z,80.03
2022-08-31T01:46:02.780Z,80.13
2022-08-31T01:47:03.230Z,80.23
2022-08-31T01:48:03.322Z,83.23
2022-08-31T01:49:03.280Z,80.23
2022-08-31T01:50:03.053Z,79.33
2022-08-31T01:51:02.925Z,80.03
2022-08-31T01:52:03.148Z,80.23
2022-08-31T01:53:03.154Z,80.83
2022-08-31T01:54:03.550Z,79.93
2022-08-31T01:55:03.397Z,79.77
2022-08-31T01:56:03.244Z,80.36
2022-08-31T01:57:03.775Z,81.07
2022-08-31T01:58:03.686Z,81.57
2022-08-31T01:59:07.696Z,82.13
2022-08-31T02:00:03.595Z,82.37
2022-08-31T02:01:03.553Z,82.37
2022-08-31T02:02:03.278Z,81.77
2022-08-31T02:03:02.750Z,81.37
2022-08-31T02:04:02.645Z,81.67
2022-08-31T02:05:03.215Z,80.87
2022-08-31T02:06:02.868Z,80.87
2022-08-31T02:07:03.442Z,81.97
2022-08-31T02:08:03.339Z,82.67
2022-08-31T02:09:03.290Z,84.17
2022-08-31T02:10:03.247Z,84.01
2022-08-31T02:11:03.172Z,81.97
2022-08-31T02:12:03.678Z,81.51
2022-08-31T02:13:03.586Z,81.51
2022-08-31T02:14:03.115Z,82.21
2022-08-31T02:15:03.350Z,82.71
2022-08-31T02:16:03.533Z,83.11
2022-08-31T02:17:03.048Z,82.21
2022-08-31T02:18:02.614Z,81.81
2022-08-31T02:19:03.030Z,84.21
2022-08-31T02:20:02.991Z,83.71
2022-08-31T02:21:02.907Z,84.21
2022-08-31T02:22:03.537Z,83.81
2022-08-31T02:23:03.216Z,83.81
2022-08-31T02:24:03.211Z,82.61
2022-08-31T02:25:02.892Z,83.11
2022-08-31T02:26:03.257Z,85.66
2022-08-31T02:27:03.837Z,84.75
2022-08-31T02:28:04.087Z,84.85
2022-08-31T02:29:03.487Z,85.05
2022-08-31T02:30:04.107Z,84.85
2022-08-31T02:31:03.831Z,83.75
2022-08-31T02:32:02.866Z,83.85
2022-08-31T02:33:03.109Z,83.95
2022-08-31T02:34:03.504Z,85.05
2022-08-31T02:35:03.535Z,84.35
2022-08-31T02:36:03.216Z,85.05
2022-08-31T02:37:03.142Z,86.60
2022-08-31T02:38:03.631Z,84.89
2022-08-31T02:39:03.530Z,85.49
2022-08-31T02:40:03.399Z,84.89
2022-08-31T02:41:03.189Z,85.89
2022-08-31T02:42:03.385Z,85.69
2022-08-31T02:43:03.002Z,86.50
2022-08-31T02:44:03.199Z,85.99
2022-08-31T02:45:03.122Z,86.69
2022-08-31T02:46:03.041Z,88.14
2022-08-31T02:47:03.506Z,87.04
2022-08-31T02:48:02.839Z,86.24
2022-08-31T02:49:03.115Z,86.74
2022-08-31T02:50:02.932Z,86.54
2022-08-31T02:51:03.314Z,86.24
2022-08-31T02:52:03.206Z,86.24
2022-08-31T02:53:03.228Z,87.04
2022-08-31T02:54:03.782Z,87.14
2022-08-31T02:55:03.507Z,86.54
2022-08-31T02:56:03.407Z,87.84
2022-08-31T02:57:03.340Z,87.04
2022-08-31T02:58:03.272Z,87.98
2022-08-31T02:59:03.905Z,87.78
2022-08-31T03:00:03.816Z,88.18
2022-08-31T03:01:03.359Z,88.29
2022-08-31T03:02:02.340Z,89.13
2022-08-31T03:03:01.992Z,89.94
2022-08-31T03:04:01.977Z,90.13
2022-08-31T03:05:02.101Z,90.17
2022-08-31T03:06:01.960Z,90.37
2022-08-31T03:07:02.413Z,90.48
2022-08-31T03:08:02.370Z,89.87
2022-08-31T03:09:02.639Z,89.98
2022-08-31T03:10:02.969Z,90.68
2022-08-31T03:11:02.677Z,90.98
2022-08-31T03:12:03.032Z,89.98
2022-08-31T03:13:02.865Z,90.88
2022-08-31T03:14:02.742Z,90.78
2022-08-31T03:15:02.682Z,90.98
2022-08-31T03:16:02.592Z,91.08
2022-08-31T03:17:02.779Z,89.87
2022-08-31T03:18:03.239Z,91.38
2022-08-31T03:19:02.463Z,90.58
2022-08-31T03:20:02.665Z,91.08
2022-08-31T03:21:02.973Z,91.08
2022-08-31T03:22:03.028Z,90.58
2022-08-31T03:23:03.098Z,90.37
2022-08-31T03:24:02.890Z,91.18
2022-08-31T03:25:02.822Z,90.68
2022-08-31T03:26:02.703Z,91.18
2022-08-31T03:27:02.268Z,91.48
2022-08-31T03:28:02.505Z,91.28
2022-08-31T03:29:02.452Z,90.92
2022-08-31T03:30:02.065Z,91.42
2022-08-31T03:31:02.622Z,91.63
2022-08-31T03:32:02.328Z,91.63
2022-08-31T03:33:02.837Z,91.22
2022-08-31T03:34:02.338Z,91.83
2022-08-31T03:35:02.279Z,91.93
2022-08-31T03:36:02.259Z,92.03
2022-08-31T03:37:02.648Z,91.83
2022-08-31T03:38:03.254Z,91.72
2022-08-31T03:39:02.646Z,91.72
2022-08-31T03:40:02.859Z,91.63
2022-08-31T03:41:02.721Z,90.82
2022-08-31T03:42:02.435Z,91.72
2022-08-31T03:43:02.262Z,91.42
2022-08-31T03:44:02.678Z,90.42
2022-08-31T03:45:02.821Z,91.02
2022-08-31T03:46:02.563Z,89.22
2022-08-31T03:47:02.779Z,89.47
2022-08-31T03:48:03.279Z,89.47
2022-08-31T03:49:02.825Z,89.67
2022-08-31T03:50:02.843Z,90.02
2022-08-31T03:51:03.022Z,90.02
2022-08-31T03:52:02.781Z,89.82
2022-08-31T03:53:02.714Z,89.01
2022-08-31T03:54:02.563Z,88.51
2022-08-31T03:55:02.510Z,88.27
2022-08-31T03:56:02.611Z,88.87
2022-08-31T03:57:03.110Z,89.87
2022-08-31T03:58:03.118Z,90.42
2022-08-31T03:59:03.219Z,90.28
2022-08-31T04:00:03.176Z,90.72
2022-08-31T04:01:03.211Z,90.32
2022-08-31T04:02:02.940Z,90.32
2022-08-31T04:03:02.680Z,89.47
2022-08-31T04:04:02.553Z,89.17
2022-08-31T04:05:02.486Z,89.72
2022-08-31T04:06:02.746Z,89.47
2022-08-31T04:07:02.416Z,88.07
2022-08-31T04:08:02.251Z,87.66
2022-08-31T04:09:02.072Z,87.26
2022-08-31T04:10:01.975Z,89.67
2022-08-31T04:11:02.680Z,89.67
2022-08-31T04:12:02.983Z,89.87
2022-08-31T04:13:02.870Z,90.32
2022-08-31T04:14:02.732Z,90.22
2022-08-31T04:15:02.707Z,91.02
2022-08-31T04:16:02.604Z,91.52
2022-08-31T04:17:03.138Z,91.83
2022-08-31T04:18:03.243Z,91.22
2022-08-31T04:19:02.800Z,90.92
2022-08-31T04:20:02.761Z,90.12
2022-08-31T04:21:03.069Z,90.22
2022-08-31T04:22:02.346Z,90.02
2022-08-31T04:23:02.319Z,89.92
2022-08-31T04:24:02.593Z,89.01
2022-08-31T04:25:02.475Z,90.82
2022-08-31T04:26:02.293Z,90.92
2022-08-31T04:27:02.902Z,90.82
2022-08-31T04:28:02.686Z,90.92
2022-08-31T04:29:02.464Z,91.13
2022-08-31T04:30:02.930Z,89.51
2022-08-31T04:31:02.726Z,91.32
2022-08-31T04:32:03.241Z,90.12
2022-08-31T04:33:02.956Z,90.12
2022-08-31T04:34:03.054Z,88.31
2022-08-31T04:35:02.904Z,88.77
2022-08-31T04:36:03.385Z,87.96
2022-08-31T04:37:02.302Z,88.27
2022-08-31T04:38:02.340Z,87.26
2022-08-31T04:39:02.271Z,87.06
2022-08-31T04:40:02.175Z,87.16
2022-08-31T04:41:02.380Z,87.06
2022-08-31T04:42:02.564Z,87.37
2022-08-31T04:43:02.497Z,88.37
2022-08-31T04:44:02.449Z,88.37
2022-08-31T04:45:03.040Z,87.96
2022-08-31T04:46:02.720Z,88.17
2022-08-31T04:47:03.329Z,88.87
2022-08-31T04:48:03.357Z,89.27
2022-08-31T04:49:03.181Z,88.67
2022-08-31T04:50:03.010Z,89.47
2022-08-31T04:51:03.555Z,90.28
2022-08-31T04:52:03.111Z,88.67
2022-08-31T04:53:03.885Z,88.27
2022-08-31T04:54:02.530Z,89.47
2022-08-31T04:55:02.484Z,88.87
2022-08-31T04:56:03.022Z,91.28
2022-08-31T04:57:03.596Z,89.37
2022-08-31T04:58:03.250Z,89.31
2022-08-31T04:59:03.048Z,89.42
2022-08-31T05:00:03.560Z,89.01
2022-08-31T05:01:03.203Z,87.81
2022-08-31T05:02:02.478Z,87.21
2022-08-31T05:03:02.594Z,88.51
2022-08-31T05:04:02.691Z,87.71
2022-08-31T05:05:02.423Z,87.01
2022-08-31T05:06:02.683Z,86.56
2022-08-31T05:07:02.545Z,86.26
2022-08-31T05:08:03.146Z,86.26
2022-08-31T05:09:02.743Z,86.06
2022-08-31T05:10:02.596Z,86.16
2022-08-31T05:11:03.117Z,85.75
2022-08-31T05:12:02.740Z,86.16
2022-08-31T05:13:03.270Z,86.06
2022-08-31T05:14:03.111Z,85.66
2022-08-31T05:15:03.111Z,85.86
2022-08-31T05:16:02.966Z,85.36
2022-08-31T05:17:02.249Z,85.25
2022-08-31T05:18:02.117Z,85.16
2022-08-31T05:19:01.940Z,86.26
2022-08-31T05:20:02.519Z,86.36
2022-08-31T05:21:02.370Z,86.96
2022-08-31T05:22:02.406Z,86.16
2022-08-31T05:23:02.304Z,85.56
2022-08-31T05:24:02.604Z,86.76
2022-08-31T05:25:02.843Z,86.96
2022-08-31T05:26:02.382Z,88.07
2022-08-31T05:27:02.503Z,88.57
2022-08-31T05:28:02.808Z,87.16
2022-08-31T05:29:02.819Z,86.26
2022-08-31T05:30:02.974Z,85.66
2022-08-31T05:31:03.125Z,85.36
2022-08-31T05:32:02.974Z,86.86
2022-08-31T05:33:02.853Z,86.06
2022-08-31T05:34:03.322Z,86.26
2022-08-31T05:35:02.982Z,86.26
2022-08-31T05:36:02.949Z,85.16
2022-08-31T05:37:02.879Z,85.75
2022-08-31T05:38:03.436Z,85.25
2022-08-31T05:39:03.092Z,85.05
2022-08-31T05:40:03.463Z,85.36
2022-08-31T05:41:02.970Z,86.06
2022-08-31T05:42:02.635Z,86.16
2022-08-31T05:43:03.040Z,86.46
2022-08-31T05:44:02.970Z,86.66
2022-08-31T05:45:02.933Z,87.37
2022-08-31T05:46:07.946Z,87.06
2022-08-31T05:47:03.812Z,87.26
2022-08-31T05:48:02.852Z,86.96
2022-08-31T05:49:02.763Z,88.27
2022-08-31T05:50:02.759Z,88.87
2022-08-31T05:51:02.745Z,88.27
2022-08-31T05:52:02.486Z,87.26
2022-08-31T05:53:02.374Z,87.57
2022-08-31T05:54:02.287Z,88.67
2022-08-31T05:55:02.281Z,89.47
2022-08-31T05:56:02.910Z,88.37
2022-08-31T05:57:02.601Z,88.37
2022-08-31T05:58:02.552Z,87.87
2022-08-31T05:59:02.863Z,87.06
2022-08-31T06:00:02.585Z,86.66
2022-08-31T06:01:02.920Z,86.76
2022-08-31T06:02:02.355Z,86.16
2022-08-31T06:03:02.310Z,86.16
2022-08-31T06:04:02.237Z,86.76
2022-08-31T06:05:02.699Z,86.06
2022-08-31T06:06:02.458Z,85.75
2022-08-31T06:07:02.388Z,87.26
2022-08-31T06:08:02.260Z,88.37
2022-08-31T06:09:02.245Z,88.77
2022-08-31T06:10:02.632Z,87.37
2022-08-31T06:11:02.485Z,86.76
2022-08-31T06:12:02.770Z,86.36
2022-08-31T06:13:02.778Z,85.96
2022-08-31T06:14:02.483Z,85.75
2022-08-31T06:15:02.296Z,85.61
2022-08-31T06:16:02.298Z,85.36
2022-08-31T06:17:02.017Z,85.31
2022-08-31T06:18:02.006Z,85.11
2022-08-31T06:19:01.969Z,85.52
2022-08-31T06:20:01.875Z,85.22
2022-08-31T06:21:02.053Z,85.11
2022-08-31T06:22:02.559Z,85.02
2022-08-31T06:23:02.465Z,85.02
2022-08-31T06:24:02.530Z,85.41
2022-08-31T06:25:02.732Z,85.31
2022-08-31T06:26:02.698Z,85.11
2022-08-31T06:27:02.607Z,86.12
2022-08-31T06:28:02.516Z,85.52
2022-08-31T06:29:02.395Z,85.41
2022-08-31T06:30:02.486Z,85.22
2022-08-31T06:31:02.778Z,85.11
2022-08-31T06:32:02.709Z,85.11
2022-08-31T06:33:03.063Z,84.91
2022-08-31T06:34:02.861Z,85.11
2022-08-31T06:35:02.731Z,84.97
2022-08-31T06:36:02.848Z,84.91
2022-08-31T06:37:01.771Z,84.97
2022-08-31T06:38:01.714Z,84.97
2022-08-31T06:39:01.701Z,84.97
2022-08-31T06:40:01.941Z,85.17
2022-08-31T06:41:02.176Z,85.88
2022-08-31T06:42:02.521Z,86.02
2022-08-31T06:43:02.516Z,85.68
2022-08-31T06:44:02.771Z,85.17
2022-08-31T06:45:02.485Z,85.17
2022-08-31T06:46:02.521Z,85.47
2022-08-31T06:47:02.266Z,85.97
2022-08-31T06:48:02.366Z,85.78
2022-08-31T06:49:02.296Z,86.48
2022-08-31T06:50:02.189Z,85.68
2022-08-31T06:51:02.097Z,85.17
2022-08-31T06:52:02.870Z,85.17
2022-08-31T06:53:02.632Z,85.08
2022-08-31T06:54:21.386Z,85.17
2022-08-31T06:55:03.109Z,85.47
2022-08-31T06:56:03.051Z,85.88
2022-08-31T06:57:02.121Z,85.78
2022-08-31T06:58:01.924Z,86.38
2022-08-31T06:59:01.878Z,86.98
2022-08-31T07:00:02.114Z,85.88
2022-08-31T07:01:02.203Z,87.08
2022-08-31T07:02:02.954Z,88.09
2022-08-31T07:03:02.602Z,86.28
2022-08-31T07:04:02.674Z,85.47
2022-08-31T07:05:02.821Z,85.27
2022-08-31T07:06:02.718Z,85.17
2022-08-31T07:07:03.309Z,87.68
2022-08-31T07:08:02.863Z,86.08
2022-08-31T07:09:02.910Z,86.48
2022-08-31T07:10:02.906Z,88.79
2022-08-31T07:11:03.216Z,87.88
2022-08-31T07:12:02.870Z,88.54
2022-08-31T07:13:02.430Z,87.44
2022-08-31T07:14:02.568Z,88.44
2022-08-31T07:15:02.510Z,89.34
2022-08-31T07:16:02.499Z,89.04
2022-08-31T07:17:03.223Z,89.45
2022-08-31T07:18:04.397Z,90.05
2022-08-31T07:19:02.650Z,89.25
2022-08-31T07:20:03.162Z,90.05
2022-08-31T07:21:03.086Z,90.05
2022-08-31T07:22:02.807Z,89.54
2022-08-31T07:23:02.617Z,89.45
2022-08-31T07:24:02.523Z,89.65
2022-08-31T07:25:02.374Z,90.25
2022-08-31T07:26:02.638Z,91.15
2022-08-31T07:27:03.385Z,90.55
2022-08-31T07:28:03.293Z,90.75
2022-08-31T07:29:03.291Z,90.05
2022-08-31T07:30:03.157Z,90.05
2022-08-31T07:31:03.209Z,89.30
2022-08-31T07:32:02.884Z,88.70
2022-08-31T07:33:02.582Z,90.11
2022-08-31T07:34:02.562Z,90.41
2022-08-31T07:35:02.505Z,89.30
2022-08-31T07:36:02.362Z,89.00
2022-08-31T07:37:02.886Z,89.40
2022-08-31T07:38:03.333Z,89.20
2022-08-31T07:39:03.352Z,88.70
2022-08-31T07:40:07.107Z,90.41
2022-08-31T07:41:03.330Z,89.90
2022-08-31T07:42:02.579Z,90.41
2022-08-31T07:43:02.576Z,90.11
2022-08-31T07:44:02.618Z,90.11
2022-08-31T07:45:02.763Z,89.36
2022-08-31T07:46:02.907Z,90.16
2022-08-31T07:47:02.719Z,89.36
2022-08-31T07:48:03.195Z,89.16
2022-08-31T07:49:02.994Z,89.16
2022-08-31T07:50:02.709Z,89.72
2022-08-31T07:51:02.893Z,89.12
2022-08-31T07:52:02.863Z,88.52
2022-08-31T07:53:03.353Z,90.08
2022-08-31T07:54:03.358Z,88.68
2022-08-31T07:55:03.481Z,88.37
2022-08-31T07:56:03.295Z,89.37
2022-08-31T07:57:02.438Z,87.37
2022-08-31T07:58:02.336Z,87.37
2022-08-31T07:59:02.742Z,88.64
2022-08-31T08:00:02.797Z,87.13
2022-08-31T08:01:02.597Z,85.83
2022-08-31T08:02:02.786Z,85.83
2022-08-31T08:03:02.820Z,86.33
2022-08-31T08:04:02.781Z,86.63
2022-08-31T08:05:03.080Z,88.13
2022-08-31T08:06:02.523Z,87.73
2022-08-31T08:07:02.839Z,86.93
2022-08-31T08:08:02.986Z,87.03
2022-08-31T08:09:22.359Z,86.53
2022-08-31T08:10:02.698Z,86.49
2022-08-31T08:11:02.706Z,84.63
2022-08-31T08:12:01.734Z,85.43
2022-08-31T08:13:02.379Z,85.63
2022-08-31T08:14:05.246Z,84.73
2022-08-31T08:15:01.634Z,84.83
2022-08-31T08:16:01.680Z,86.03
2022-08-31T08:17:02.222Z,85.93
2022-08-31T08:18:02.426Z,85.83
2022-08-31T08:19:02.386Z,87.13
2022-08-31T08:20:02.366Z,86.89
2022-08-31T08:21:02.189Z,85.69
2022-08-31T08:22:02.320Z,86.19
2022-08-31T08:23:02.518Z,87.19
2022-08-31T08:24:02.453Z,84.89
2022-08-31T08:25:02.733Z,88.09
2022-08-31T08:26:02.208Z,87.29
2022-08-31T08:27:02.486Z,86.25
2022-08-31T08:28:17.092Z,86.85
2022-08-31T08:29:02.102Z,87.05
2022-08-31T08:30:02.067Z,85.65
2022-08-31T08:31:02.021Z,86.15
2022-08-31T08:32:02.591Z,86.75
2022-08-31T08:33:02.637Z,87.71
2022-08-31T08:34:02.579Z,88.71
2022-08-31T08:35:03.108Z,87.46
2022-08-31T08:36:03.043Z,86.47
2022-08-31T08:37:03.224Z,86.66
2022-08-31T08:38:07.555Z,84.47
2022-08-31T08:39:03.057Z,84.33
2022-08-31T08:40:03.295Z,85.42
2022-08-31T08:41:03.152Z,85.49
2022-08-31T08:42:02.161Z,85.88
2022-08-31T08:43:02.408Z,85.25
2022-08-31T08:44:02.371Z,85.44
2022-08-31T08:45:02.196Z,82.86
2022-08-31T08:46:15.174Z,83.11
2022-08-31T08:47:02.213Z,83.81
2022-08-31T08:48:02.435Z,84.91
2022-08-31T08:49:02.446Z,84.56
2022-08-31T08:50:02.012Z,83.97
2022-08-31T08:51:02.576Z,83.47
2022-08-31T08:52:02.856Z,82.87
2022-08-31T08:53:02.941Z,82.64
2022-08-31T08:54:02.985Z,81.54
2022-08-31T08:55:03.094Z,80.44
2022-08-31T08:56:23.235Z,80.35
2022-08-31T08:57:02.695Z,77.06
2022-08-31T08:58:02.426Z,77.99
2022-08-31T08:59:02.120Z,80.18
2022-08-31T09:00:02.459Z,80.68
2022-08-31T09:01:02.528Z,82.28
2022-08-31T09:02:02.675Z,82.04
2022-08-31T09:03:03.001Z,78.75
2022-08-31T09:04:02.682Z,80.74
2022-08-31T09:05:02.657Z,79.94
2022-08-31T09:06:02.960Z,78.06
2022-08-31T09:07:02.724Z,79.35
2022-08-31T09:08:02.687Z,79.35
2022-08-31T09:09:02.719Z,78.45
2022-08-31T09:10:02.684Z,77.86
2022-08-31T09:11:02.539Z,76.96
2022-08-31T09:12:03.747Z,77.95
2022-08-31T09:13:03.558Z,77.95
2022-08-31T09:14:03.475Z,76.70
2022-08-31T09:15:03.716Z,77.99
2022-08-31T09:16:03.818Z,76.10
2022-08-31T09:17:02.669Z,77.20
2022-08-31T09:18:02.654Z,78.43
2022-08-31T09:19:02.708Z,76.54
2022-08-31T09:20:02.645Z,76.04
2022-08-31T09:21:02.549Z,76.04
2022-08-31T09:22:03.302Z,76.73
2022-08-31T09:23:03.215Z,77.13
2022-08-31T09:24:03.613Z,78.33
2022-08-31T09:25:03.324Z,78.43
2022-08-31T09:26:08.028Z,77.73
2022-08-31T09:27:02.820Z,75.84
2022-08-31T09:28:02.900Z,76.60
2022-08-31T09:29:02.672Z,76.60
2022-08-31T09:30:02.650Z,76.43
2022-08-31T09:31:02.737Z,75.74
2022-08-31T09:32:06.319Z,76.14
2022-08-31T09:33:03.346Z,76.24
2022-08-31T09:34:03.242Z,75.34
2022-08-31T09:35:03.261Z,76.04
2022-08-31T09:36:03.234Z,77.47
2022-08-31T09:37:02.832Z,75.57
2022-08-31T09:38:02.789Z,76.37
2022-08-31T09:39:02.784Z,78.17
2022-08-31T09:40:07.226Z,78.17
2022-08-31T09:41:02.744Z,77.07
2022-08-31T09:42:03.242Z,78.67
2022-08-31T09:43:02.861Z,75.14
2022-08-31T09:44:03.275Z,76.93
2022-08-31T09:45:03.153Z,77.83
2022-08-31T09:46:03.120Z,74.74
2022-08-31T09:47:03.146Z,74.64
2022-08-31T09:48:03.133Z,74.08
2022-08-31T09:49:03.083Z,77.67
2022-08-31T09:50:03.140Z,77.43
2022-08-31T09:51:02.994Z,75.74
2022-08-31T09:52:03.667Z,74.94
2022-08-31T09:53:03.559Z,75.24
2022-08-31T09:54:03.356Z,76.50
2022-08-31T09:55:03.487Z,74.01
2022-08-31T09:56:03.361Z,73.71
2022-08-31T09:57:03.049Z,74.60
2022-08-31T09:58:03.157Z,72.81
2022-08-31T09:59:02.628Z,76.00
2022-08-31T10:00:03.195Z,73.21
2022-08-31T10:01:03.061Z,73.97
2022-08-31T10:02:06.040Z,73.57
2022-08-31T10:03:06.541Z,73.57
2022-08-31T10:04:03.319Z,73.77
2022-08-31T10:05:03.068Z,74.27
2022-08-31T10:06:03.031Z,72.48
2022-08-31T10:07:02.873Z,72.68
2022-08-31T10:08:02.925Z,73.28
2022-08-31T10:09:02.688Z,73.87
2022-08-31T10:10:02.913Z,73.94
2022-08-31T10:11:02.453Z,73.84
2022-08-31T10:12:03.072Z,73.34
2022-08-31T10:13:02.863Z,72.14
2022-08-31T10:14:02.934Z,72.38
2022-08-31T10:15:02.563Z,72.25
2022-08-31T10:16:02.631Z,72.74
2022-08-31T10:17:03.331Z,72.85
2022-08-31T10:18:03.338Z,73.74
2022-08-31T10:19:03.238Z,72.44
2022-08-31T10:20:03.056Z,73.34
2022-08-31T10:21:03.337Z,72.64
2022-08-31T10:22:02.748Z,73.34
2022-08-31T10:23:02.618Z,72.55
2022-08-31T10:24:02.222Z,73.70
2022-08-31T10:25:02.154Z,72.11
2022-08-31T10:26:02.220Z,71.81
2022-08-31T10:27:03.010Z,71.81
2022-08-31T10:28:02.822Z,70.92
2022-08-31T10:29:02.688Z,70.72
2022-08-31T10:30:02.710Z,72.21
2022-08-31T10:31:02.745Z,72.91
2022-08-31T10:32:03.468Z,71.61
2022-08-31T10:33:03.129Z,72.61
2022-08-31T10:34:03.197Z,71.42
2022-08-31T10:35:03.112Z,72.21
2022-08-31T10:36:03.212Z,73.17
2022-08-31T10:37:02.302Z,72.17
2022-08-31T10:38:02.920Z,73.07
2022-08-31T10:39:02.666Z,71.94
2022-08-31T10:40:02.723Z,71.48
2022-08-31T10:41:02.951Z,72.77
2022-08-31T10:42:02.492Z,71.94
2022-08-31T10:43:02.611Z,70.36
2022-08-31T10:44:02.674Z,70.55
2022-08-31T10:45:02.728Z,70.75
2022-08-31T10:46:02.732Z,71.45
2022-08-31T10:47:02.666Z,73.63
2022-08-31T10:48:02.923Z,72.01
2022-08-31T10:49:02.819Z,71.11
2022-08-31T10:50:02.921Z,72.80
2022-08-31T10:51:03.028Z,69.72
2022-08-31T10:52:03.369Z,72.71
2022-08-31T10:53:02.970Z,69.03
2022-08-31T10:54:02.771Z,70.98
2022-08-31T10:55:03.029Z,71.97
2022-08-31T10:56:02.845Z,69.99
2022-08-31T10:57:02.498Z,69.59
2022-08-31T10:58:02.856Z,70.25
2022-08-31T10:59:02.771Z,69.65
2022-08-31T11:00:02.980Z,68.57
2022-08-31T11:01:03.039Z,68.17
2022-08-31T11:02:03.092Z,66.98
2022-08-31T11:03:02.919Z,67.94
2022-08-31T11:04:02.515Z,66.55
2022-08-31T11:05:02.600Z,67.14
2022-08-31T11:06:02.602Z,66.94
2022-08-31T11:07:02.905Z,66.35
2022-08-31T11:08:02.701Z,66.55
2022-08-31T11:09:02.941Z,66.28
2022-08-31T11:10:02.631Z,66.78
2022-08-31T11:11:02.649Z,66.28
2022-08-31T11:12:02.545Z,66.88
2022-08-31T11:13:02.293Z,67.67
2022-08-31T11:14:02.138Z,68.27
2022-08-31T11:15:02.180Z,68.33
2022-08-31T11:16:02.243Z,68.53
2022-08-31T11:17:02.334Z,67.54
2022-08-31T11:18:02.531Z,68.93
2022-08-31T11:19:05.997Z,67.94
2022-08-31T11:20:02.360Z,66.94
2022-08-31T11:21:02.460Z,67.05
2022-08-31T11:22:02.310Z,67.05
2022-08-31T11:23:02.945Z,67.80
2022-08-31T11:24:02.596Z,67.01
2022-08-31T11:25:02.625Z,66.52
2022-08-31T11:26:02.792Z,65.36
2022-08-31T11:27:02.981Z,65.95
2022-08-31T11:28:02.778Z,66.45
2022-08-31T11:29:02.756Z,66.75
2022-08-31T11:30:02.592Z,65.36
2022-08-31T11:31:02.969Z,65.36
2022-08-31T11:32:02.981Z,66.58
2022-08-31T11:33:02.523Z,66.35
2022-08-31T11:34:17.783Z,66.55
2022-08-31T11:35:02.804Z,65.86
2022-08-31T11:36:06.742Z,65.86
2022-08-31T11:37:02.897Z,65.95
2022-08-31T11:38:03.014Z,66.78
2022-08-31T11:39:02.976Z,65.78
2022-08-31T11:40:03.083Z,66.85
2022-08-31T11:41:03.031Z,67.84
2022-08-31T11:42:02.847Z,68.83
2022-08-31T11:43:02.552Z,65.86
2022-08-31T11:44:02.197Z,66.15
2022-08-31T11:45:02.766Z,66.15
2022-08-31T11:46:02.567Z,67.64
2022-08-31T11:47:02.229Z,66.35
2022-08-31T11:48:02.853Z,67.50
2022-08-31T11:49:02.885Z,67.31
2022-08-31T11:50:02.814Z,66.32
2022-08-31T11:51:02.877Z,65.82
2022-08-31T11:52:02.915Z,64.17
2022-08-31T11:53:02.397Z,65.95
2022-08-31T11:54:02.414Z,64.56
2022-08-31T11:55:02.481Z,65.26
2022-08-31T11:56:02.558Z,65.26
2022-08-31T11:57:02.583Z,65.66
2022-08-31T11:58:03.199Z,66.94
2022-08-31T11:59:03.253Z,65.66
2022-08-31T12:00:03.136Z,64.73
2022-08-31T12:01:03.257Z,65.13
2022-08-31T12:02:03.075Z,65.03
2022-08-31T12:03:02.786Z,66.71
2022-08-31T12:04:02.840Z,66.39
2022-08-31T12:05:03.248Z,65.20
2022-08-31T12:06:02.318Z,63.61
2022-08-31T12:07:02.728Z,63.71
2022-08-31T12:08:03.467Z,65.20
2022-08-31T12:09:03.206Z,65.99
2022-08-31T12:10:03.300Z,65.20
2022-08-31T12:11:02.921Z,63.61
2022-08-31T12:12:03.524Z,63.61
2022-08-31T12:13:02.496Z,63.31
2022-08-31T12:14:02.524Z,62.92
2022-08-31T12:15:03.125Z,64.40
2022-08-31T12:16:03.049Z,62.92
2022-08-31T12:17:02.780Z,63.71
2022-08-31T12:18:03.053Z,62.62
2022-08-31T12:19:03.076Z,62.23
2022-08-31T12:20:03.040Z,61.73
2022-08-31T12:21:02.965Z,64.70
2022-08-31T12:22:03.017Z,64.31
2022-08-31T12:23:02.683Z,63.42
2022-08-31T12:24:02.632Z,63.21
2022-08-31T12:25:02.661Z,63.98
2022-08-31T12:26:02.250Z,63.88
2022-08-31T12:27:02.489Z,64.37
2022-08-31T12:28:02.983Z,64.14
2022-08-31T12:29:03.000Z,61.90
2022-08-31T12:30:02.858Z,61.30
2022-08-31T12:31:03.126Z,62.19
2022-08-31T12:32:04.633Z,62.26
2022-08-31T12:33:02.932Z,63.75
2022-08-31T12:34:03.592Z,63.62
2022-08-31T12:35:03.217Z,63.92
2022-08-31T12:36:03.167Z,63.39
2022-08-31T12:37:03.488Z,63.79
2022-08-31T12:38:02.745Z,64.84
2022-08-31T12:39:02.705Z,63.95
2022-08-31T12:40:03.218Z,65.63
2022-08-31T12:41:02.969Z,64.02
2022-08-31T12:42:02.848Z,61.35
2022-08-31T12:43:03.446Z,60.46
2022-08-31T12:44:03.868Z,63.23
2022-08-31T12:45:02.985Z,63.40
2022-08-31T12:46:02.930Z,63.69
2022-08-31T12:47:02.922Z,62.68
2022-08-31T12:48:02.944Z,63.04
2022-08-31T12:49:03.228Z,62.05
2022-08-31T12:50:03.346Z,60.94
2022-08-31T12:51:02.910Z,62.12
2022-08-31T12:52:03.029Z,62.12